This is the latest recevied weather packets stored in our database for station/object EB1TK-13. If no packets are shown the sender has not sent any weather packets the latest 1 day(s).
| Time | Temp. | Humidity | Pressure | Rain* | Wind** | Luminosity | Snow |
|---|---|---|---|---|---|---|---|
| 1778006536 | 14.44° C | 80% | 1014.7 hPa | 0 mm | 1.34 m/s, 298° | - | - |
| 1778005936 | 14.44° C | 79% | 1014.7 hPa | 0 mm | 1.34 m/s, 318° | - | - |
| 1778005337 | 15° C | 78% | 1014.7 hPa | 0 mm | 4.02 m/s, 269° | - | - |
| 1778004737 | 15° C | 79% | 1014.6 hPa | 0 mm | 2.24 m/s, 275° | - | - |
| 1778004137 | 15.56° C | 77% | 1014.7 hPa | 0 mm | 2.68 m/s, 280° | - | - |
| 1778003535 | 15.56° C | 78% | 1014.6 hPa | 0 mm | 1.79 m/s, 315° | - | - |
| 1778002936 | 15.56° C | 78% | 1014.6 hPa | 0 mm | 0.89 m/s, 333° | - | - |
| 1778002335 | 15.56° C | 78% | 1014.6 hPa | 0 mm | 3.13 m/s, 281° | - | - |
| 1778001736 | 16.11° C | 78% | 1014.6 hPa | 0 mm | 1.79 m/s, 291° | - | - |
| 1778001136 | 15.56° C | 81% | 1014.6 hPa | 0 mm | 1.34 m/s, 305° | - | - |
| 1778000537 | 15° C | 82% | 1014.5 hPa | 0 mm | 0.89 m/s, 275° | - | - |
| 1777999937 | 15° C | 81% | 1014.6 hPa | 0 mm | 0.89 m/s, 306° | - | - |
| 1777999335 | 15.56° C | 82% | 1014.6 hPa | 0 mm | 3.13 m/s, 277° | - | - |
| 1777998737 | 15.56° C | 80% | 1014.5 hPa | 0 mm | 4.02 m/s, 263° | - | - |
| 1777998136 | 16.11° C | 80% | 1014.4 hPa | 0 mm | 2.24 m/s, 283° | - | - |
| 1777997536 | 16.11° C | 80% | 1014.5 hPa | 0 mm | 3.58 m/s, 256° | - | - |
| 1777996936 | 15.56° C | 81% | 1014.5 hPa | 0 mm | 1.79 m/s, 296° | - | - |
| 1777996337 | 16.11° C | 81% | 1014.4 hPa | 0 mm | 4.47 m/s, 264° | - | - |
| 1777995735 | 15.56° C | 83% | 1014.4 hPa | 0 mm | 1.79 m/s, 269° | - | - |
| 1777995135 | 15.56° C | 82% | 1014.3 hPa | 0 mm | 3.58 m/s, 275° | - | - |
| 1777994535 | 15.56° C | 82% | 1014.3 hPa | 0 mm | 2.68 m/s, 302° | - | - |
| 1777993936 | 16.11° C | 81% | 1014.4 hPa | 0 mm | 5.36 m/s, 271° | - | - |
| 1777993336 | 15.56° C | 81% | 1014.3 hPa | 0 mm | 3.13 m/s, 293° | - | - |
| 1777992737 | 15° C | 83% | 1014.3 hPa | 0 mm | 4.02 m/s, 277° | - | - |
| 1777992137 | 15.56° C | 82% | 1014.4 hPa | 0 mm | 4.02 m/s, 284° | - | - |
* Rain latest hour (hover to see other rain measurements)
** Current wind speed in m/s (hover to see current wind gust speed)